< < Back
Terminal Aerodrome Forecast


Current Version              Previous Versions:   1  2  3  4  5  6  7  8  9  

Terminal Aerodrome Forecast

310
FTUS42 KCAE 030742 AAA
TAFCAE
TAF AMD
KCAE 030742Z 0308/0406 13004KT P6SM BKN010 BKN150
     FM030900 VRB03KT 3SM BR BKN006
     FM031400 VRB04KT P6SM BKN015
     FM031600 15005KT P6SM BKN040
     FM040000 VRB03KT P6SM SCT060=

Latest METAR

242
SAUS80 KWBC 031700
MTRCAE
METAR KCAE 031656Z 07006KT 10SM SCT032 BKN048 BKN250 33/21 A2992 RMK AO2
SLP128 T03280206


USA.gov is the U.S. government's official web portal to all federal, state and local government web resources and services.